Portada
METAR-TAF:

METAR-TAF

Aeropuertos :

San Antonio del Táchira, Venezuela

Aeropuerto Internacional Juan Vicente Gómez

latitud: 07-51N, longitud: 072-27W, altitud: 377 m

METAR: falta

Hora: 16:32 (20:32 UTC)

Pronóstico

El informe se hizo hace 4 horas y 32 minutos, a las 16:00 UTC
Pronóstico válido del 23 a las 18 UTC al 24 a las 18 UTC
Viento 10 kt del oeste
Visibilidad 10 km o más
Escasas nubes a una altura de 2000 ft
Nubes dispersas a una altura de 7000 ft
Evolucionando progresivamente
del 23 a las 18 UTC al 23 a las 22 UTC
Viento 5 kt del oeste-suroeste
Visibilidad: 9000 m
Cielo nuboso a una altura de 2000 ft
llovizna

TAF: SVSA 231600Z 2318/2418 28010KT 9999 FEW020 SCT070 TX34/19Z TN23/08Z BECMG 2318/2322 25005KT 9000 DZ BKN020

Observaciones y pronósticos meteorológicos de más de 4000 aeropuertos (mensajes METAR y TAF).

Los puntos amarillos y rojos representan las estaciones disponibles.

Ponga el ratón en el punto deseado para ver el nombre de la estación.

Haga clic para ver las observaciones y los pronósticos meteorológicos.

Para cambiar el mapa : haga clic en los botones verdes con una cruz de color negro para hacer un zoom, en el botón verde con un guión para alejar o en las flechas verdes para mapas adyacentes.


METAR-TAF: